Time;durP1;ratioP1;P1;durP2;ratioP2;P2;SDS_P1;SDS_P2;PMS_P1;PMS_P2;Temp;Humidity;BMP_temperature;BMP_pressure;BME280_temperature;BME280_humidity;BME280_pressure;Samples;Min_cycle;Max_cycle;Signal;HPM_P1;HPM_P2
2022/11/04 00:01:52;;;;;;;;;;;12.10;99.90;;;;;;5114015;28;19912;-38
2022/11/04 00:04:19;;;;;;;;;;;12.10;99.90;;;;;;5113969;28;19923;-39
2022/11/04 00:06:45;;;;;;;;;;;12.10;99.90;;;;;;5112926;28;19912;-40
2022/11/04 00:09:12;;;;;;;;;;;12.00;99.90;;;;;;5113334;28;19912;-38
2022/11/04 00:14:22;;;;;;;;;;;12.00;99.90;;;;;;5113910;28;19918;-38
2022/11/04 00:28:41;;;;;;;;;;;12.00;99.90;;;;;;5103621;28;19974;-38
2022/11/04 00:30:30;;;;;;;;;;;11.90;99.90;;;;;;5114205;28;20041;-38
2022/11/04 00:35:40;;;;;;;;;;;11.80;99.90;;;;;;5113506;28;20392;-38
2022/11/04 00:38:05;;;;;;;;;;;11.80;99.90;;;;;;5113867;28;19908;-37
2022/11/04 00:40:30;;;;;;;;;;;11.70;99.90;;;;;;5113308;28;20445;-38
2022/11/04 00:42:56;;;;;;;;;;;11.70;99.90;;;;;;5113480;28;19924;-38
2022/11/04 00:45:21;;;;;;;;;;;11.70;99.90;;;;;;5113974;28;20389;-38
2022/11/04 00:47:47;;;;;;;;;;;11.60;99.90;;;;;;5113121;28;19912;-36
2022/11/04 00:50:12;;;;;;;;;;;11.60;99.90;;;;;;5112337;28;19922;-38
2022/11/04 00:52:38;;;;;;;;;;;11.60;99.90;;;;;;5113225;28;19984;-38
2022/11/04 00:55:03;;;;;;;;;;;11.50;99.90;;;;;;5107153;28;19912;-39
2022/11/04 00:57:29;;;;;;;;;;;11.40;99.90;;;;;;5112932;28;19908;-38
2022/11/04 00:59:54;;;;;;;;;;;11.40;99.90;;;;;;5109251;28;19919;-37
2022/11/04 01:02:20;;;;;;;;;;;11.40;99.90;;;;;;5111700;28;19912;-40
2022/11/04 01:04:46;;;;;;;;;;;11.30;99.90;;;;;;5112985;28;19912;-39
2022/11/04 01:07:11;;;;;;;;;;;11.20;99.90;;;;;;5112580;28;19919;-37
2022/11/04 01:09:37;;;;;;;;;;;11.20;99.90;;;;;;5112305;28;19945;-39
2022/11/04 01:12:02;;;;;;;;;;;11.20;99.90;;;;;;5112278;28;19970;-37
2022/11/04 01:14:29;;;;;;;;;;;11.10;99.90;;;;;;5113484;28;19955;-39
2022/11/04 01:16:54;;;;;;;;;;;11.10;99.90;;;;;;5111724;28;19912;-37
2022/11/04 01:19:20;;;;;;;;;;;11.10;99.90;;;;;;5112418;28;19956;-38
2022/11/04 01:21:48;;;;;;;;;;;11.10;99.90;;;;;;5110874;28;19911;-38
2022/11/04 01:24:14;;;;;;;;;;;11.10;99.90;;;;;;5105848;28;20010;-41
2022/11/04 01:26:39;;;;;;;;;;;11.00;99.90;;;;;;5111818;28;20426;-39
2022/11/04 01:29:05;;;;;;;;;;;11.00;99.90;;;;;;5112112;28;20024;-38
2022/11/04 01:31:30;;;;;;;;;;;11.00;99.90;;;;;;5111081;28;19973;-42
2022/11/04 01:33:56;;;;;;;;;;;11.00;99.90;;;;;;5113191;28;20002;-38
2022/11/04 01:36:22;;;;;;;;;;;11.00;99.90;;;;;;5105042;28;19912;-38
2022/11/04 01:38:48;;;;;;;;;;;11.00;99.90;;;;;;5110919;28;20334;-39
2022/11/04 01:41:21;;;;;;;;;;;11.00;99.90;;;;;;5112116;28;19916;-38
2022/11/04 01:43:49;;;;;;;;;;;11.00;99.90;;;;;;5111408;28;19923;-38
2022/11/04 01:46:20;;;;;;;;;;;11.00;99.90;;;;;;5110448;28;19934;-39
2022/11/04 01:48:45;;;;;;;;;;;11.00;99.90;;;;;;5112867;28;20363;-40
2022/11/04 01:51:11;;;;;;;;;;;11.00;99.90;;;;;;5104887;28;19919;-39
2022/11/04 01:53:38;;;;;;;;;;;11.00;99.90;;;;;;5109174;28;19915;-38
2022/11/04 01:56:10;;;;;;;;;;;11.00;99.90;;;;;;5109201;28;19919;-38
2022/11/04 01:58:38;;;;;;;;;;;11.00;99.90;;;;;;5112074;28;19919;-38
2022/11/04 02:01:03;;;;;;;;;;;11.00;99.90;;;;;;5112271;28;20346;-38
2022/11/04 02:03:32;;;;;;;;;;;11.10;99.90;;;;;;5112717;28;19912;-40
2022/11/04 02:05:58;;;;;;;;;;;11.00;99.90;;;;;;5108829;28;19923;-39
2022/11/04 02:08:23;;;;;;;;;;;11.10;99.90;;;;;;5104240;28;19959;-38
2022/11/04 02:10:51;;;;;;;;;;;11.10;99.90;;;;;;5112422;28;19919;-37
2022/11/04 02:13:16;;;;;;;;;;;11.10;99.90;;;;;;5111219;28;19958;-38
2022/11/04 02:15:51;;;;;;;;;;;11.10;99.90;;;;;;5109543;28;19984;-40
2022/11/04 02:18:25;;;;;;;;;;;11.10;99.90;;;;;;5103552;28;19918;-37
2022/11/04 02:21:09;;;;;;;;;;;11.10;99.90;;;;;;5114171;28;19923;-40
2022/11/04 02:23:47;;;;;;;;;;;11.10;99.90;;;;;;5115974;28;20365;-37
2022/11/04 02:26:28;;;;;;;;;;;11.10;99.90;;;;;;5114962;28;19911;-37
2022/11/04 02:29:07;;;;;;;;;;;11.10;99.90;;;;;;5115625;28;20381;-38
2022/11/04 02:31:39;;;;;;;;;;;11.00;99.90;;;;;;5107658;28;19927;-37
2022/11/04 02:34:18;;;;;;;;;;;11.00;99.90;;;;;;5108147;28;20015;-41
2022/11/04 02:36:48;;;;;;;;;;;11.00;99.90;;;;;;5115385;28;19912;-38
2022/11/04 02:39:36;;;;;;;;;;;10.90;99.90;;;;;;5114845;28;19920;-38
2022/11/04 02:42:05;;;;;;;;;;;10.90;99.90;;;;;;5114992;28;19920;-39
2022/11/04 02:44:30;;;;;;;;;;;10.90;99.90;;;;;;5115374;28;19919;-39
2022/11/04 02:47:02;;;;;;;;;;;10.90;99.90;;;;;;5096440;28;19912;-37
2022/11/04 02:49:33;;;;;;;;;;;10.90;99.90;;;;;;5095639;28;19916;-38
2022/11/04 02:52:04;;;;;;;;;;;10.80;99.90;;;;;;5095115;28;20423;-39
2022/11/04 02:54:45;;;;;;;;;;;10.90;99.90;;;;;;5094577;28;19935;-38
2022/11/04 02:57:23;;;;;;;;;;;10.90;99.90;;;;;;5095132;28;19913;-41
2022/11/04 02:59:56;;;;;;;;;;;10.80;99.90;;;;;;5094622;28;19959;-38
2022/11/04 03:02:25;;;;;;;;;;;10.80;99.90;;;;;;5094175;28;19920;-38
2022/11/04 03:04:51;;;;;;;;;;;10.80;99.90;;;;;;5094277;28;19923;-38
2022/11/04 03:07:20;;;;;;;;;;;10.80;99.90;;;;;;5094617;28;19912;-41
2022/11/04 03:09:48;;;;;;;;;;;10.80;99.90;;;;;;5093963;28;19912;-39
2022/11/04 03:12:15;;;;;;;;;;;10.80;99.90;;;;;;5093984;28;19924;-39
2022/11/04 03:14:43;;;;;;;;;;;10.80;99.90;;;;;;5094539;28;19912;-38
2022/11/04 03:17:19;;;;;;;;;;;10.80;99.90;;;;;;5093661;28;19912;-42
2022/11/04 03:19:56;;;;;;;;;;;10.80;99.90;;;;;;5093696;28;20396;-38
2022/11/04 03:22:23;;;;;;;;;;;10.70;99.90;;;;;;5093420;28;19942;-38
2022/11/04 03:24:49;;;;;;;;;;;10.80;99.90;;;;;;5094292;28;19912;-38
2022/11/04 03:27:20;;;;;;;;;;;10.70;99.90;;;;;;5094660;28;19912;-40
2022/11/04 03:29:45;;;;;;;;;;;10.70;99.90;;;;;;5093471;28;19923;-40
2022/11/04 03:32:11;;;;;;;;;;;10.60;99.90;;;;;;5093972;28;19920;-40
2022/11/04 03:34:36;;;;;;;;;;;10.60;99.90;;;;;;5093943;28;19919;-43
2022/11/04 03:37:02;;;;;;;;;;;10.50;99.90;;;;;;5093794;28;19944;-39
2022/11/04 03:39:28;;;;;;;;;;;10.50;99.90;;;;;;5094535;28;19916;-39
2022/11/04 03:41:57;;;;;;;;;;;10.50;99.90;;;;;;5096727;27;19920;-40
2022/11/04 03:44:23;;;;;;;;;;;10.50;99.90;;;;;;5113518;28;20011;-39
2022/11/04 03:46:55;;;;;;;;;;;10.50;99.90;;;;;;5114183;28;20380;-40
2022/11/04 03:49:21;;;;;;;;;;;10.50;99.90;;;;;;5114607;28;19916;-42
2022/11/04 03:51:47;;;;;;;;;;;10.50;99.90;;;;;;5113220;28;19919;-41
2022/11/04 03:54:13;;;;;;;;;;;10.60;99.90;;;;;;5113942;28;19915;-43
2022/11/04 03:56:47;;;;;;;;;;;10.50;99.90;;;;;;5114430;28;19912;-38
2022/11/04 03:59:31;;;;;;;;;;;10.50;99.90;;;;;;5112668;28;19912;-40
2022/11/04 04:02:15;;;;;;;;;;;10.50;99.90;;;;;;5113618;28;19912;-38
2022/11/04 04:04:51;;;;;;;;;;;10.50;99.90;;;;;;5113627;28;19934;-37
2022/11/04 04:07:19;;;;;;;;;;;10.40;99.90;;;;;;5114026;28;19912;-37
2022/11/04 04:09:48;;;;;;;;;;;10.40;99.90;;;;;;5114319;28;19908;-41
2022/11/04 04:12:16;;;;;;;;;;;10.30;99.90;;;;;;5113454;28;20362;-38
2022/11/04 04:14:45;;;;;;;;;;;10.30;99.90;;;;;;5114383;28;19947;-38
2022/11/04 04:17:19;;;;;;;;;;;10.20;99.90;;;;;;5113864;28;20010;-38
2022/11/04 04:19:50;;;;;;;;;;;10.20;99.90;;;;;;5112678;28;19911;-40
2022/11/04 04:22:18;;;;;;;;;;;10.10;99.90;;;;;;5113778;28;19912;-38
2022/11/04 04:27:30;;;;;;;;;;;10.10;99.90;;;;;;5113134;28;20007;-37
2022/11/04 04:30:06;;;;;;;;;;;10.10;99.90;;;;;;5113230;28;19999;-37
2022/11/04 04:32:38;;;;;;;;;;;10.10;99.90;;;;;;5112556;28;19919;-37
2022/11/04 04:37:51;;;;;;;;;;;10.10;99.90;;;;;;5113171;28;19914;-37
2022/11/04 04:45:49;;;;;;;;;;;10.10;99.90;;;;;;5113524;28;19982;-36
2022/11/04 04:48:15;;;;;;;;;;;10.10;99.90;;;;;;5112253;28;19918;-38
2022/11/04 04:50:42;;;;;;;;;;;10.10;99.90;;;;;;5113297;28;19912;-39
2022/11/04 04:53:08;;;;;;;;;;;10.10;99.90;;;;;;5113031;28;19924;-36
2022/11/04 04:55:33;;;;;;;;;;;10.10;99.90;;;;;;5112277;28;19919;-36
2022/11/04 04:57:58;;;;;;;;;;;10.10;99.90;;;;;;5112279;28;19926;-38
2022/11/04 05:00:24;;;;;;;;;;;10.10;99.90;;;;;;5112506;28;19955;-38
2022/11/04 05:02:50;;;;;;;;;;;10.10;99.90;;;;;;5111850;28;20381;-35
2022/11/04 05:05:16;;;;;;;;;;;10.10;99.90;;;;;;5112930;28;20265;-36
2022/11/04 05:07:41;;;;;;;;;;;10.10;99.90;;;;;;5110755;28;19912;-36
2022/11/04 05:10:08;;;;;;;;;;;10.10;99.90;;;;;;5112907;28;19924;-36
2022/11/04 05:15:18;;;;;;;;;;;10.10;99.90;;;;;;5112690;28;19922;-36
2022/11/04 05:17:44;;;;;;;;;;;10.00;99.90;;;;;;5112851;28;19912;-36
2022/11/04 05:20:10;;;;;;;;;;;10.00;99.90;;;;;;5112631;28;19927;-35
2022/11/04 05:22:35;;;;;;;;;;;10.00;99.90;;;;;;5111755;28;19912;-36
2022/11/04 05:25:01;;;;;;;;;;;10.10;99.90;;;;;;5113092;28;19979;-36
2022/11/04 05:27:26;;;;;;;;;;;10.00;99.90;;;;;;5112915;28;19919;-36
2022/11/04 05:29:52;;;;;;;;;;;10.00;99.90;;;;;;5111781;28;19920;-35
2022/11/04 05:32:17;;;;;;;;;;;10.00;99.90;;;;;;5111895;28;19930;-37
2022/11/04 05:34:43;;;;;;;;;;;10.00;99.90;;;;;;5111558;28;19923;-36
2022/11/04 05:37:08;;;;;;;;;;;10.00;99.90;;;;;;5111649;28;19912;-36
2022/11/04 05:39:34;;;;;;;;;;;9.90;99.90;;;;;;5112583;28;19943;-37
2022/11/04 05:41:59;;;;;;;;;;;9.90;99.90;;;;;;5112197;27;19927;-35
2022/11/04 05:44:25;;;;;;;;;;;9.80;99.90;;;;;;5111211;28;20309;-35
2022/11/04 05:46:51;;;;;;;;;;;9.80;99.90;;;;;;5112619;28;20348;-35
2022/11/04 05:49:16;;;;;;;;;;;9.70;99.90;;;;;;5115368;28;19918;-36
2022/11/04 05:51:42;;;;;;;;;;;9.70;99.90;;;;;;5116023;28;19965;-36
2022/11/04 05:54:08;;;;;;;;;;;9.60;99.90;;;;;;5117011;28;19924;-37
2022/11/04 05:56:33;;;;;;;;;;;9.70;99.90;;;;;;5116441;28;20006;-36
2022/11/04 05:58:59;;;;;;;;;;;9.70;99.90;;;;;;5115148;28;19978;-37
2022/11/04 06:01:29;;;;;;;;;;;9.60;99.90;;;;;;5116432;28;19911;-36
2022/11/04 06:03:55;;;;;;;;;;;9.70;99.90;;;;;;5115545;28;20500;-37
2022/11/04 06:06:21;;;;;;;;;;;9.60;99.90;;;;;;5115147;28;20628;-38
2022/11/04 06:08:48;;;;;;;;;;;9.60;99.90;;;;;;5116276;28;19912;-36
2022/11/04 06:11:13;;;;;;;;;;;9.60;99.90;;;;;;5115726;28;19912;-37
2022/11/04 06:13:39;;;;;;;;;;;9.50;99.90;;;;;;5115393;28;19935;-36
2022/11/04 06:16:04;;;;;;;;;;;9.40;99.90;;;;;;5115363;28;19912;-39
2022/11/04 06:18:30;;;;;;;;;;;9.40;99.90;;;;;;5099276;28;19916;-38
2022/11/04 06:21:05;;;;;;;;;;;9.40;99.90;;;;;;5116475;28;19912;-37
2022/11/04 06:23:30;;;;;;;;;;;9.30;99.90;;;;;;5115420;28;19912;-36
2022/11/04 06:25:56;;;;;;;;;;;9.30;99.90;;;;;;5115370;28;19918;-37
2022/11/04 06:28:21;;;;;;;;;;;9.30;99.90;;;;;;5115749;28;20357;-37
2022/11/04 06:30:47;;;;;;;;;;;9.20;99.90;;;;;;5115196;28;19980;-35
2022/11/04 06:33:12;;;;;;;;;;;9.10;99.90;;;;;;5114508;28;19927;-38
2022/11/04 06:35:38;;;;;;;;;;;9.10;99.90;;;;;;5114935;28;19920;-36
2022/11/04 06:38:03;;;;;;;;;;;9.00;99.90;;;;;;5115287;28;20374;-38
2022/11/04 06:40:29;;;;;;;;;;;9.00;99.90;;;;;;5114531;28;19935;-38
2022/11/04 06:42:55;;;;;;;;;;;9.00;99.90;;;;;;5115145;28;20451;-37
2022/11/04 06:45:20;;;;;;;;;;;8.90;99.90;;;;;;5114234;28;19919;-36
2022/11/04 06:47:46;;;;;;;;;;;8.90;99.90;;;;;;5107246;28;20285;-38
2022/11/04 06:50:12;;;;;;;;;;;8.90;99.90;;;;;;5111290;28;19919;-36
2022/11/04 06:52:37;;;;;;;;;;;8.80;99.90;;;;;;5114044;28;19924;-36
2022/11/04 06:55:03;;;;;;;;;;;8.80;99.90;;;;;;5113755;28;19961;-36
2022/11/04 06:57:28;;;;;;;;;;;8.90;99.90;;;;;;5114924;28;19918;-36
2022/11/04 06:59:54;;;;;;;;;;;8.80;99.90;;;;;;5107864;28;20366;-37
2022/11/04 07:02:19;;;;;;;;;;;8.80;99.90;;;;;;5095058;28;19976;-39
2022/11/04 07:04:45;;;;;;;;;;;8.80;99.90;;;;;;5109276;28;19908;-38
2022/11/04 07:07:10;;;;;;;;;;;8.80;99.90;;;;;;5107130;28;20267;-39
2022/11/04 07:09:36;;;;;;;;;;;8.90;99.90;;;;;;5107298;28;19915;-38
2022/11/04 07:12:02;;;;;;;;;;;8.90;99.90;;;;;;5107116;28;20426;-37
2022/11/04 07:14:27;;;;;;;;;;;8.90;99.90;;;;;;5108238;28;19967;-38
2022/11/04 07:16:53;;;;;;;;;;;8.90;99.90;;;;;;5109462;28;20255;-37
2022/11/04 07:19:18;;;;;;;;;;;8.90;99.90;;;;;;5109854;28;19911;-37
2022/11/04 07:21:44;;;;;;;;;;;8.90;99.90;;;;;;5108448;28;20007;-37
2022/11/04 07:24:09;;;;;;;;;;;9.00;99.90;;;;;;5106912;28;19912;-38
2022/11/04 07:26:35;;;;;;;;;;;9.00;99.90;;;;;;5107676;28;20475;-37
2022/11/04 07:29:00;;;;;;;;;;;9.00;99.90;;;;;;5106221;28;19952;-39
2022/11/04 07:31:26;;;;;;;;;;;9.00;99.90;;;;;;5105650;28;20342;-37
2022/11/04 07:33:52;;;;;;;;;;;9.10;99.90;;;;;;5108622;28;20386;-37
2022/11/04 07:36:18;;;;;;;;;;;9.10;99.90;;;;;;5110624;28;19919;-37
2022/11/04 07:38:43;;;;;;;;;;;9.10;99.90;;;;;;5111693;28;20449;-38
2022/11/04 07:41:09;;;;;;;;;;;9.10;99.90;;;;;;5112989;28;20362;-38
2022/11/04 07:43:34;;;;;;;;;;;9.10;99.90;;;;;;5111941;28;19924;-41
2022/11/04 07:46:01;;;;;;;;;;;9.10;99.90;;;;;;5112763;28;19965;-38
2022/11/04 07:48:26;;;;;;;;;;;9.10;99.90;;;;;;5110207;28;19911;-39
2022/11/04 07:50:55;;;;;;;;;;;9.10;99.90;;;;;;5111547;28;19922;-37
2022/11/04 07:53:21;;;;;;;;;;;9.10;99.90;;;;;;5112640;28;20649;-37
2022/11/04 07:55:49;;;;;;;;;;;9.10;99.90;;;;;;5112354;28;20003;-42
2022/11/04 07:58:15;;;;;;;;;;;9.10;99.90;;;;;;5111918;28;19999;-37
2022/11/04 08:00:40;;;;;;;;;;;9.10;99.90;;;;;;5112970;28;20336;-36
2022/11/04 08:03:06;;;;;;;;;;;9.10;99.90;;;;;;5113661;28;19961;-37
2022/11/04 08:05:31;;;;;;;;;;;9.20;99.90;;;;;;5112954;28;19909;-38
2022/11/04 08:07:57;;;;;;;;;;;9.20;99.90;;;;;;5095124;28;19908;-36
2022/11/04 08:10:22;;;;;;;;;;;9.20;99.90;;;;;;5112785;28;19919;-37
2022/11/04 08:12:49;;;;;;;;;;;9.30;99.90;;;;;;5112154;28;19920;-38
2022/11/04 08:15:15;;;;;;;;;;;9.30;99.90;;;;;;5112742;28;19912;-38
2022/11/04 08:17:40;;;;;;;;;;;9.40;99.90;;;;;;5111574;28;20222;-40
2022/11/04 08:20:06;;;;;;;;;;;9.40;99.90;;;;;;5112391;28;19907;-38
2022/11/04 08:22:33;;;;;;;;;;;9.40;99.90;;;;;;5112882;28;19919;-38
2022/11/04 08:24:58;;;;;;;;;;;9.50;99.90;;;;;;5112494;28;20002;-37
2022/11/04 08:27:24;;;;;;;;;;;9.50;99.90;;;;;;5112705;28;20223;-38
2022/11/04 08:29:50;;;;;;;;;;;9.60;99.90;;;;;;5111131;28;19927;-36
2022/11/04 08:32:15;;;;;;;;;;;9.60;99.90;;;;;;5107920;28;19920;-38
2022/11/04 08:34:40;;;;;;;;;;;9.70;99.90;;;;;;5111051;28;19918;-38
2022/11/04 08:37:06;;;;;;;;;;;9.70;99.90;;;;;;5111174;28;20374;-37
2022/11/04 08:39:32;;;;;;;;;;;9.70;99.90;;;;;;5111721;28;19916;-37
2022/11/04 08:41:57;;;;;;;;;;;9.80;99.90;;;;;;5112929;28;19920;-36
2022/11/04 08:44:23;;;;;;;;;;;9.80;99.90;;;;;;5113753;28;19992;-37
2022/11/04 08:46:49;;;;;;;;;;;9.90;99.90;;;;;;5112803;28;19953;-37
2022/11/04 08:49:14;;;;;;;;;;;9.90;99.90;;;;;;5112735;28;19916;-38
2022/11/04 08:51:42;;;;;;;;;;;10.00;99.90;;;;;;5112469;28;20335;-38
2022/11/04 08:54:08;;;;;;;;;;;10.00;99.90;;;;;;5111612;28;20374;-37
2022/11/04 08:56:35;;;;;;;;;;;10.00;99.90;;;;;;5112737;28;21488;-37
2022/11/04 08:59:01;;;;;;;;;;;10.10;99.90;;;;;;5112591;28;19914;-40
2022/11/04 09:01:27;;;;;;;;;;;10.20;99.90;;;;;;5111002;28;19998;-38
2022/11/04 09:03:52;;;;;;;;;;;10.20;99.90;;;;;;5110576;28;20456;-37
2022/11/04 09:06:22;;;;;;;;;;;10.20;99.90;;;;;;5106661;28;20006;-37
2022/11/04 09:08:47;;;;;;;;;;;10.30;99.90;;;;;;5106070;28;19957;-38
2022/11/04 09:11:14;;;;;;;;;;;10.30;99.90;;;;;;5106236;28;19915;-36
2022/11/04 09:13:40;;;;;;;;;;;10.40;99.90;;;;;;5106798;28;19981;-37
2022/11/04 09:16:06;;;;;;;;;;;10.50;99.90;;;;;;5111005;28;19907;-37
2022/11/04 09:18:31;;;;;;;;;;;10.50;99.90;;;;;;5112221;28;19907;-39
2022/11/04 09:21:01;;;;;;;;;;;10.50;99.90;;;;;;5110985;28;19919;-37
2022/11/04 09:23:26;;;;;;;;;;;10.50;99.90;;;;;;5111797;28;19908;-36
2022/11/04 09:25:52;;;;;;;;;;;10.60;99.90;;;;;;5111380;28;19911;-38
2022/11/04 09:28:17;;;;;;;;;;;10.60;99.90;;;;;;5110746;28;19930;-39
2022/11/04 09:30:43;;;;;;;;;;;10.70;99.90;;;;;;5112054;28;19908;-37
2022/11/04 09:33:08;;;;;;;;;;;10.70;99.90;;;;;;5123080;28;19932;-36
2022/11/04 09:35:34;;;;;;;;;;;10.70;99.90;;;;;;5131962;27;19915;-36
2022/11/04 09:38:01;;;;;;;;;;;10.60;99.90;;;;;;5132115;28;19907;-37
2022/11/04 09:40:27;;;;;;;;;;;10.60;99.90;;;;;;5131841;28;19912;-37
2022/11/04 09:42:52;;;;;;;;;;;10.70;99.90;;;;;;5132553;28;19923;-37
2022/11/04 09:45:23;;;;;;;;;;;10.70;99.90;;;;;;5132421;28;20404;-37
2022/11/04 09:47:50;;;;;;;;;;;10.80;99.90;;;;;;5133234;28;19916;-40
2022/11/04 09:50:28;;;;;;;;;;;10.90;99.90;;;;;;5130392;28;19907;-42
2022/11/04 09:53:22;;;;;;;;;;;11.00;99.90;;;;;;5116611;28;19963;-40
2022/11/04 09:55:51;;;;;;;;;;;11.00;99.90;;;;;;5090476;28;19908;-47
2022/11/04 09:58:17;;;;;;;;;;;11.10;99.90;;;;;;5111876;28;19908;-37
2022/11/04 10:00:47;;;;;;;;;;;11.10;99.90;;;;;;5112738;28;20270;-37
2022/11/04 10:03:37;;;;;;;;;;;11.00;99.90;;;;;;5111639;28;19912;-37
2022/11/04 10:06:15;;;;;;;;;;;11.00;99.90;;;;;;5110856;28;19942;-39
2022/11/04 10:09:03;;;;;;;;;;;11.10;99.90;;;;;;5112687;28;19951;-42
2022/11/04 10:11:48;;;;;;;;;;;11.20;99.90;;;;;;5112012;28;19998;-38
2022/11/04 10:14:28;;;;;;;;;;;11.30;99.90;;;;;;5109083;28;19916;-36
2022/11/04 10:16:54;;;;;;;;;;;11.30;99.90;;;;;;5091766;28;20302;-38
2022/11/04 10:19:22;;;;;;;;;;;11.30;99.90;;;;;;5110508;28;20380;-37
2022/11/04 10:21:54;;;;;;;;;;;11.40;99.90;;;;;;5110178;28;19912;-38
2022/11/04 10:24:34;;;;;;;;;;;11.40;99.90;;;;;;5108357;28;19916;-37
2022/11/04 10:27:02;;;;;;;;;;;11.60;99.90;;;;;;5108760;28;20332;-36
2022/11/04 10:29:33;;;;;;;;;;;11.60;99.90;;;;;;5112027;28;19915;-37
2022/11/04 10:32:00;;;;;;;;;;;11.60;99.90;;;;;;5111371;28;19965;-37
2022/11/04 10:34:35;;;;;;;;;;;11.50;99.90;;;;;;5111661;28;19951;-37
2022/11/04 10:37:00;;;;;;;;;;;11.50;99.90;;;;;;5096073;28;19912;-39
2022/11/04 10:39:27;;;;;;;;;;;11.50;99.90;;;;;;5095056;28;19919;-39
2022/11/04 10:41:53;;;;;;;;;;;11.60;99.90;;;;;;5097895;27;19977;-36
2022/11/04 10:44:27;;;;;;;;;;;11.60;99.90;;;;;;5124809;27;19974;-37
2022/11/04 10:46:58;;;;;;;;;;;11.60;99.90;;;;;;5131642;27;19946;-37
2022/11/04 10:49:39;;;;;;;;;;;11.70;99.90;;;;;;5116900;27;19912;-38
2022/11/04 10:52:05;;;;;;;;;;;11.70;99.90;;;;;;5124849;27;19998;-36
2022/11/04 10:54:35;;;;;;;;;;;11.80;99.90;;;;;;5135704;27;19966;-37
2022/11/04 10:57:00;;;;;;;;;;;11.80;99.90;;;;;;5135200;27;19908;-36
2022/11/04 10:59:28;;;;;;;;;;;11.80;99.90;;;;;;5134926;27;19918;-37
2022/11/04 11:01:55;;;;;;;;;;;11.80;99.90;;;;;;5135612;27;20281;-38
2022/11/04 11:04:23;;;;;;;;;;;11.80;99.90;;;;;;5136112;27;19908;-38
2022/11/04 11:06:49;;;;;;;;;;;11.70;99.90;;;;;;5133760;27;19935;-38
2022/11/04 11:09:21;;;;;;;;;;;11.70;99.90;;;;;;5134057;27;20030;-37
2022/11/04 11:11:47;;;;;;;;;;;11.80;99.90;;;;;;5124328;27;19911;-37
2022/11/04 11:14:30;;;;;;;;;;;11.90;99.90;;;;;;5135207;27;20291;-38
2022/11/04 11:16:56;;;;;;;;;;;11.90;99.90;;;;;;5136203;27;19908;-37
2022/11/04 11:19:25;;;;;;;;;;;12.10;99.90;;;;;;5135925;27;20713;-37
2022/11/04 11:21:54;;;;;;;;;;;12.20;99.90;;;;;;5135984;27;19923;-39
2022/11/04 11:24:21;;;;;;;;;;;12.30;99.90;;;;;;5136042;27;20093;-38
2022/11/04 11:26:48;;;;;;;;;;;12.50;99.90;;;;;;5135902;27;19908;-37
2022/11/04 11:29:20;;;;;;;;;;;12.60;99.90;;;;;;5135339;27;20002;-37
2022/11/04 11:31:46;;;;;;;;;;;12.90;99.90;;;;;;5118760;27;19931;-37
2022/11/04 11:34:16;;;;;;;;;;;13.00;99.90;;;;;;5115179;28;20362;-37
2022/11/04 11:36:43;;;;;;;;;;;13.20;99.90;;;;;;5115246;28;19915;-39
2022/11/04 11:39:12;;;;;;;;;;;13.20;99.90;;;;;;5115161;28;19912;-39
2022/11/04 11:41:57;;;;;;;;;;;13.10;99.90;;;;;;5114722;27;19930;-37
2022/11/04 11:44:31;;;;;;;;;;;12.90;99.90;;;;;;5115191;28;19908;-37
2022/11/04 11:47:00;;;;;;;;;;;13.00;99.90;;;;;;5115902;27;19911;-37
2022/11/04 11:49:32;;;;;;;;;;;13.00;99.90;;;;;;5118419;27;19911;-37
2022/11/04 11:52:16;;;;;;;;;;;13.10;99.90;;;;;;5133188;27;20459;-37
2022/11/04 11:54:45;;;;;;;;;;;13.20;99.90;;;;;;5128132;27;19922;-38
2022/11/04 11:57:28;;;;;;;;;;;13.30;99.90;;;;;;5123547;27;20354;-37
2022/11/04 11:59:58;;;;;;;;;;;13.40;99.90;;;;;;5128744;27;20270;-43
2022/11/04 12:02:30;;;;;;;;;;;13.60;99.90;;;;;;5118304;27;20357;-38
2022/11/04 12:04:56;;;;;;;;;;;13.60;99.90;;;;;;5131868;27;20361;-38
2022/11/04 12:07:40;;;;;;;;;;;13.60;99.90;;;;;;5133252;27;19993;-39
2022/11/04 12:10:15;;;;;;;;;;;13.40;99.90;;;;;;5129243;27;19911;-38
2022/11/04 12:12:59;;;;;;;;;;;13.20;99.90;;;;;;5134653;27;19926;-39
2022/11/04 12:15:24;;;;;;;;;;;13.00;99.90;;;;;;5133284;27;20002;-38
2022/11/04 12:17:50;;;;;;;;;;;13.00;99.90;;;;;;5134084;27;20404;-39
2022/11/04 12:20:30;;;;;;;;;;;12.90;99.90;;;;;;5134105;27;19911;-37
2022/11/04 12:23:10;;;;;;;;;;;12.90;99.90;;;;;;5131836;27;19907;-44
2022/11/04 12:25:50;;;;;;;;;;;12.90;99.90;;;;;;5131404;27;20490;-38
2022/11/04 12:28:21;;;;;;;;;;;12.80;99.90;;;;;;5131364;27;19918;-37
2022/11/04 12:30:55;;;;;;;;;;;12.50;99.90;;;;;;5133328;27;19956;-37
2022/11/04 12:33:27;;;;;;;;;;;12.40;99.90;;;;;;5134897;27;19961;-38
2022/11/04 12:36:07;;;;;;;;;;;12.10;99.90;;;;;;5134795;27;19911;-36
2022/11/04 12:38:35;;;;;;;;;;;11.90;99.90;;;;;;5134305;27;19907;-38
2022/11/04 12:41:01;;;;;;;;;;;11.70;99.90;;;;;;5134395;27;19953;-37
2022/11/04 12:43:33;;;;;;;;;;;11.50;99.90;;;;;;5134306;27;19919;-36
2022/11/04 12:46:07;;;;;;;;;;;11.30;99.90;;;;;;5133776;27;19911;-41
2022/11/04 12:48:47;;;;;;;;;;;11.10;99.90;;;;;;5134706;27;19907;-36
2022/11/04 12:51:23;;;;;;;;;;;11.00;99.90;;;;;;5134151;27;19914;-36
2022/11/04 12:54:07;;;;;;;;;;;10.90;99.90;;;;;;5127812;27;19972;-35
2022/11/04 12:56:37;;;;;;;;;;;10.80;99.90;;;;;;5129625;27;19929;-38
2022/11/04 12:59:09;;;;;;;;;;;10.80;99.90;;;;;;5133032;27;19953;-36
2022/11/04 13:01:42;;;;;;;;;;;10.70;99.90;;;;;;5134284;27;19907;-37
2022/11/04 13:04:08;;;;;;;;;;;10.70;99.90;;;;;;5134189;27;19946;-35
2022/11/04 13:06:37;;;;;;;;;;;10.80;99.90;;;;;;5133654;27;19954;-38
2022/11/04 13:09:23;;;;;;;;;;;10.70;99.90;;;;;;5134151;27;19914;-38
2022/11/04 13:11:51;;;;;;;;;;;10.70;99.90;;;;;;5133363;27;19907;-37
2022/11/04 13:14:30;;;;;;;;;;;10.70;99.90;;;;;;5133337;27;19908;-36
2022/11/04 13:17:04;;;;;;;;;;;10.70;99.90;;;;;;5133869;27;19907;-37
2022/11/04 13:19:44;;;;;;;;;;;10.70;99.90;;;;;;5134093;27;20338;-36
2022/11/04 13:22:14;;;;;;;;;;;10.70;99.90;;;;;;5133265;27;19907;-35
2022/11/04 13:24:46;;;;;;;;;;;10.70;99.90;;;;;;5134067;27;19953;-38
2022/11/04 13:27:20;;;;;;;;;;;10.70;99.90;;;;;;5133243;27;20002;-36
2022/11/04 13:29:46;;;;;;;;;;;10.70;99.90;;;;;;5133843;27;19911;-37
2022/11/04 13:32:24;;;;;;;;;;;10.70;99.90;;;;;;5133406;27;19911;-36
2022/11/04 13:35:00;;;;;;;;;;;10.70;99.90;;;;;;5133477;27;19919;-36
2022/11/04 13:37:25;;;;;;;;;;;10.60;99.90;;;;;;5133514;27;19964;-36
2022/11/04 13:39:59;;;;;;;;;;;10.60;99.90;;;;;;5135719;27;19915;-36
2022/11/04 13:42:24;;;;;;;;;;;10.60;99.90;;;;;;5130158;27;19972;-38
2022/11/04 13:44:52;;;;;;;;;;;10.60;99.90;;;;;;5133271;28;19908;-38
2022/11/04 13:47:23;;;;;;;;;;;10.70;99.90;;;;;;5132829;28;20019;-37
2022/11/04 13:49:50;;;;;;;;;;;10.70;99.90;;;;;;5132664;28;19907;-39
2022/11/04 13:52:16;;;;;;;;;;;10.80;99.90;;;;;;5133222;28;19963;-36
2022/11/04 13:55:04;;;;;;;;;;;10.80;99.90;;;;;;5133579;28;20365;-38
2022/11/04 13:57:32;;;;;;;;;;;10.90;99.90;;;;;;5104554;28;20397;-36
2022/11/04 14:00:09;;;;;;;;;;;11.10;99.90;;;;;;5113021;28;19908;-37
2022/11/04 14:02:42;;;;;;;;;;;11.40;99.90;;;;;;5112622;28;19914;-36
2022/11/04 14:05:38;;;;;;;;;;;12.00;99.90;;;;;;5112668;28;20273;-37
2022/11/04 14:08:08;;;;;;;;;;;12.70;99.90;;;;;;5090117;28;20278;-37
2022/11/04 14:10:44;;;;;;;;;;;13.40;99.90;;;;;;5115823;28;20358;-38
2022/11/04 14:13:25;;;;;;;;;;;14.00;99.90;;;;;;5116639;28;19963;-37
2022/11/04 14:16:02;;;;;;;;;;;14.60;99.90;;;;;;5117155;28;19914;-36
2022/11/04 14:18:29;;;;;;;;;;;15.00;99.90;;;;;;5116794;28;19911;-38
2022/11/04 14:21:03;;;;;;;;;;;15.20;99.90;;;;;;5126485;27;19923;-37
2022/11/04 14:23:28;;;;;;;;;;;15.20;99.90;;;;;;5136331;27;19907;-41
2022/11/04 14:26:01;;;;;;;;;;;15.00;99.90;;;;;;5136811;27;20345;-39
2022/11/04 14:28:28;;;;;;;;;;;14.70;99.90;;;;;;5132754;27;19911;-37
2022/11/04 14:30:56;;;;;;;;;;;14.70;99.90;;;;;;5131478;27;20008;-50
2022/11/04 14:33:24;;;;;;;;;;;14.50;99.90;;;;;;5134873;27;19919;-37
2022/11/04 14:35:50;;;;;;;;;;;14.20;99.90;;;;;;5136563;27;19918;-37
2022/11/04 14:38:27;;;;;;;;;;;13.80;99.90;;;;;;5135768;27;19908;-36
2022/11/04 14:41:11;;;;;;;;;;;13.40;99.90;;;;;;5130527;27;20014;-37
2022/11/04 14:43:39;;;;;;;;;;;12.90;99.90;;;;;;5136101;27;19919;-38
2022/11/04 14:46:04;;;;;;;;;;;12.70;99.90;;;;;;5136293;27;20270;-37
2022/11/04 14:48:30;;;;;;;;;;;12.50;99.90;;;;;;5136963;27;19933;-36
2022/11/04 14:50:56;;;;;;;;;;;12.30;99.90;;;;;;5136723;27;20422;-43
2022/11/04 14:53:25;;;;;;;;;;;12.10;99.90;;;;;;5136135;27;19915;-36
2022/11/04 14:56:03;;;;;;;;;;;12.00;99.90;;;;;;5136820;27;19921;-36
2022/11/04 14:58:28;;;;;;;;;;;11.80;99.90;;;;;;5136413;27;20037;-37
2022/11/04 15:00:56;;;;;;;;;;;11.70;99.90;;;;;;5136674;27;19961;-39
2022/11/04 15:03:24;;;;;;;;;;;11.60;99.90;;;;;;5136306;27;20373;-37